Zahran, Saudi Arabia
Current Conditions -  °F | °C
As of 6:00 PM on Tuesday 21 Oct 2014 (Local Time) from OEDR Reporting Station
Sand / Dust Storm Sand / Dust Storm  
Wind Chill: 86°   Ceiling: Unl
Heat Index: 89°   Visibility: 3mi
Dew Point: 68°   Wind: 14mph
Humidity: 55%   Direction: 350°N
Pressure: 29.85"   Gusts: NA
Location:  26.27°N, 50.15°E
Report Text: OEDR 211500Z 35012KT 5000 BLDU SKC 30/20 Q1011 NOSIG
Loading
Personal Weather Stations






























Interactive Weather Map
Tropical Storm Tracking
New forecast layout! Learn more

10-Day Weather Forecast

Advertisements
Track Severe Weather on mobile